AirNav   Air Wisconsin pilot careers
 
 439 users online  

CL35 Warner Springs Gliderport
Warner Springs, California, USA

GOING TO WARNER SPRINGS?


FAA INFORMATION EFFECTIVE 16 AUGUST 2018

Location

FAA Identifier: CL35
Lat/Long: 33-17-04.2100N / 116-40-10.7650W
33-17.070167N / 116-40.179417W
33.2845028 / -116.6696569
(estimated)
Elevation: 2880 ft. / 878 m (estimated)
Variation: 13E (1985)
From city: 2 miles E of WARNER SPRINGS, CA
Time zone: UTC -7 (UTC -8 during Standard Time)
Zip code: 92086

Gliderport Operations

Gliderport use: Private use. Permission required prior to landing
Activation date: 10/1984
Control tower: no
ARTCC: LOS ANGELES CENTER
FSS: SAN DIEGO FLIGHT SERVICE STATION
Attendance: 0900-1700
Wind indicator: yes
Segmented circle: yes
Landing fee: yes

Gliderport Communications

UNICOM: 122.8
WX AWOS-3 at L08 (18 nm E): 126.575 (760-767-3308)
WX ASOS at RNM (19 nm SW): 132.025 (760-789-0736)

Nearby radio navigation aids

VOR radial/distance  VOR name  Freq  Var
JLIr319/9.6JULIAN VORTAC114.0015E
TRMr218/32.8THERMAL VORTAC116.2013E
PSPr186/37.1PALM SPRINGS VORTAC115.5013E
OCNr071/37.6OCEANSIDE VORTAC115.3015E
HDFr125/(39.2)HOMELAND VOR113.4014E

Gliderport Services

Runway Information

Runway 8/26

Dimensions: 3500 x 70 ft. / 1067 x 21 m
Surface: asphalt
RUNWAY 8  RUNWAY 26
Latitude: 33-17.060333N33-17.080000N
Longitude: 116-40.522667W116-39.836167W
Elevation: 2873.0 ft.2914.0 ft.
Traffic pattern: leftleft
Obstructions: none200 ft. hill, 5200 ft. from runway

Gliderport Ownership and Management from official FAA records

Ownership: Privately-owned
Owner: WARNER SPRINGS RANCH RESORT, LLC
31930 HWY 79
WARNER SPRINGS, CA 92086
Phone 760-782-4200
SKY SAILING 31930 HWY 79.
Manager: BRET WILLAT
SKY SAILING 31930 HWY 79
WARNER SPRINGS, CA 92086
Phone 760-782-0404
LEASEE.

Gliderport Operational Statistics

Aircraft based on the field: 80
Single engine airplanes: 10
Gliders airplanes: 70
    

Instrument Procedures

There are no published instrument procedures at CL35.

Some nearby airports with instrument procedures:

L08 - Borrego Valley Airport (18 nm E)
KRNM - Ramona Airport (19 nm SW)
F70 - French Valley Airport (29 nm NW)
L18 - Fallbrook Community Airpark (29 nm W)
KSEE - Gillespie Field Airport (31 nm SW)
 
Loc | Ops | Rwys | IFR | FBO | Links
Com | Nav | Svcs | Stats | Notes


 
Area around CL35 (Warner Springs Gliderport)
 
Road maps at: MapQuest Bing Google
 
Aerial photo
WARNING: Photo may not be current or correct
Aerial photo of CL35 (Warner Springs Gliderport)
Photo by Steve Lupinacci
Photo taken 27-May-2008

Do you have a better or more recent aerial photo of Warner Springs Gliderport that you would like to share? If so, please send us your photo.

 
Sectional chart

 
Airport distance calculator
Flying to Warner Springs Gliderport? Find the distance to fly.

From to CL35

Sunrise and sunset
Times for 21-Aug-2018
 Local
(UTC-7)
 Zulu
(UTC)
Morning civil twilight05:4912:49
Sunrise06:1413:14
Sunset19:2502:25
Evening civil twilight19:5102:51

Current date and time
Zulu (UTC)  22-Aug-2018 06:03:27
Local (UTC-7)  21-Aug-2018 23:03:27
 
METAR
KL08 
18nm E 
220555Z AUTO 33015G20KT 10SM BKN035 OVC042 33/13 A2985 RMK AO2
KRNM 
20nm SW 
220553Z AUTO 27004KT 8SM CLR 19/16 A3003 RMK AO2 SLP152 T01890161 10300 20183 51017
KF70 
29nm NW 
220555Z AUTO 17005KT 10SM CLR 20/18 A3002 RMK AO1
KL18 
29nm W 
220555Z AUTO 00000KT 10SM OVC011 20/18 A3001 RMK AO2
KSEE 
32nm SW 
220555Z AUTO 00000KT 10SM 22/19 A2999 RMK AO2
KCRQ 
32nm W 
220553Z AUTO 24004KT 9SM OVC015 22/19 A2999 RMK AO2 SLP151 T02220189 10244 20222 51016
KTRM 
33nm NE 
220552Z AUTO 19007KT 10SM CLR 35/19 A2981 RMK AO2 SLP096 T03500194 10428 20350 51024
KPSP 
33nm N 
220553Z AUTO 26003KT 10SM CLR 34/15 A2988 RMK AO2 SLP112 T03440150 10411 20344 51023
KNFG 
33nm W 
220555Z 00000KT 9SM BKN016 21/18 A2998 RMK AO2 SLP153 T02060183 10261 20206 51017 $
KNKX 
34nm SW 
220455Z 25004KT 9SM FEW014 23/18 A3000 RMK AO2 SLP150 T02280178
TAF
KCRQ 
32nm W 
220520Z 2206/2306 21004KT P6SM OVC013 FM221900 25007KT P6SM FEW014 FM230400 VRB04KT P6SM OVC013
KTRM 
33nm NE 
220520Z 2206/2306 14009KT P6SM SCT200 FM220800 VRB04KT P6SM FEW200 FM221500 13006KT P6SM SKC
KPSP 
33nm N 
220520Z 2206/2306 33013G20KT P6SM SCT100 FM220700 VRB04KT P6SM FEW200 FM230000 32012G20KT P6SM FEW200
KNFG 
33nm W 
2203/2303 VRB05KT 9999 FEW020 QNH2993INS BECMG 2204/2206 VRB05KT 9999 BKN015 QNH2994INS BECMG 2217/2219 23009KT 9999 FEW015 QNH2992INS FM230200 VRB05KT 9999 FEW015 QNH2995INS T20/2212Z T26/2221Z
KNKX 
34nm SW 
2205/2303 VRB06KT 9999 FEW020 FEW250 QNH2998INS BECMG 2205/2207 VRB06KT 9999 OVC012 QNH2995INS BECMG 2216/2218 27007KT 9999 FEW020 FEW250 QNH2993INS FM230130 VRB06KT 9999 FEW020 QNH2993INS T22/2213Z T28/2221Z AMD 0510
NOTAMs
Click for the latest NOTAMs
NOTAMs are issued by the DoD/FAA and will open in a separate window not controlled by AirNav.

 

 
 

Would you like to see your business listed on this page?

 If your business provides an interesting product or service to pilots, flight crews, aircraft, or users of the Warner Springs Gliderport, you should consider listing it here.  To start the listing process, click on the button below
 
Add a business
 

Other Pages about Warner Springs Gliderport

www.agcsc.org/warner_springs_info.html
 
Update a link
 
Copyright © AirNav, LLC. All rights reserved. Privacy Policy  Contact